ASN logo
Last updated: 10 December 2018
Status:Preliminary
Date:Friday 30 November 2018
Time:13:49
Type:Silhouette image of generic C550 model; specific model in this crash may look slightly different
Cessna 550 Citation II
Operator: Slice of the 406 LLC
Registration: N941JM
C/n / msn: 550-0146
First flight: 1980
Engines: 2 Pratt & Whitney Canada JT15D-4
Crew:Fatalities: 0 / Occupants:
Passengers:Fatalities: 0 / Occupants:
Total:Fatalities: 0 / Occupants: 11
Aircraft damage: Substantial
Location:Fargo-Hector International Airport, ND (FAR) (   United States of America)
Phase: Landing (LDG)
Nature:Unknown
Departure airport:Williston-Sloulin Field International Airport, ND (ISN/KISN), United States of America
Destination airport:Fargo-Hector International Airport, ND (FAR/KFAR), United States of America
Narrative:
The aircraft experienced a loss of directional control and subsequent runway excursion upon landing at Fargo-Hector International Airport (KFAR), North Dakota, USA. The airplane went off the right-hand side of runway 18 and sustained substantial damage. There were no reported injuries to the occupant(s) onboard.

Classification:
Runway excursion

Sources:
» valleynewslive.com
» westfargopioneer.com
» Flightaware track
» FAA register
» FAA

METAR Weather report:
18:53 UTC / 12:53 local time:
KFAR 301853Z 16008KT 6SM BR OVC004 M01/M01 A2990 RMK AO2 SLP137 T10061011

19:53 UTC / 13:53 local time:
KFAR 301953Z 20010KT 5SM BR OVC004 M01/M01 A2991 RMK AO2 SLP142 T10111011


Photos

Add your photo of this accident or aircraft

Video, social media

Map
This map shows the airport of departure and the intended destination of the flight. The line between the airports does not display the exact flight path.
Distance from Williston-Sloulin Field International Airport, ND to Fargo-Hector International Airport, ND as the crow flies is 527 km (329 miles).

This information is not presented as the Flight Safety Foundation or the Aviation Safety Network’s opinion as to the cause of the accident. It is preliminary and is based on the facts as they are known at this time.
languages: languages

Share